createdAt,value
2017-11-30T00:02:10.601Z,98353.09
2017-11-30T00:04:38.060Z,98340.06
2017-11-30T00:07:05.569Z,98334.58
2017-11-30T00:09:33.044Z,98328.71
2017-11-30T00:12:00.595Z,98332.91
2017-11-30T00:14:28.075Z,98327.02
2017-11-30T00:16:55.549Z,98331.25
2017-11-30T00:19:23.033Z,98331.64
2017-11-30T00:21:50.585Z,98329.13
2017-11-30T00:24:18.076Z,98324.50
2017-11-30T00:26:45.544Z,98324.89
2017-11-30T00:29:13.045Z,98318.19
2017-11-30T00:31:40.507Z,98316.94
2017-11-30T00:34:07.993Z,98311.47
2017-11-30T00:36:35.504Z,98310.63
2017-11-30T00:39:02.988Z,98307.25
2017-11-30T00:41:30.455Z,98303.88
2017-11-30T00:44:09.723Z,98304.30
2017-11-30T00:46:37.178Z,98304.31
2017-11-30T00:49:04.645Z,98294.20
2017-11-30T00:51:32.154Z,98297.98
2017-11-30T00:53:59.658Z,98305.14
2017-11-30T00:56:27.139Z,98298.84
2017-11-30T00:58:54.612Z,98291.71
2017-11-30T01:01:22.096Z,98295.90
2017-11-30T01:03:49.560Z,98298.84
2017-11-30T01:06:17.044Z,98294.23
2017-11-30T01:08:44.508Z,98299.28
2017-11-30T01:11:11.969Z,98300.13
2017-11-30T01:13:40.001Z,98298.86
2017-11-30T01:16:07.462Z,98296.32
2017-11-30T01:18:34.945Z,98294.66
2017-11-30T01:21:03.442Z,98297.58
2017-11-30T01:23:30.930Z,98297.17
2017-11-30T01:25:58.448Z,98294.20
2017-11-30T01:28:25.952Z,98290.05
2017-11-30T01:30:53.969Z,98289.20
2017-11-30T01:33:21.531Z,98284.57
2017-11-30T01:35:48.996Z,98280.39
2017-11-30T01:38:16.583Z,98275.32
2017-11-30T01:40:44.094Z,98279.95
2017-11-30T01:43:11.580Z,98281.62
2017-11-30T01:45:42.956Z,98271.13
2017-11-30T01:48:10.445Z,98268.59
2017-11-30T01:50:37.897Z,98271.13
2017-11-30T01:53:05.381Z,98269.05
2017-11-30T01:55:32.857Z,98262.31
2017-11-30T01:58:01.185Z,98253.06
2017-11-30T02:00:29.812Z,98253.92
2017-11-30T02:02:57.283Z,98255.18
2017-11-30T02:05:24.780Z,98244.67
2017-11-30T02:07:52.272Z,98245.09
2017-11-30T02:10:19.772Z,98234.16
2017-11-30T02:12:47.232Z,98229.53
2017-11-30T02:15:14.816Z,98233.31
2017-11-30T02:17:42.271Z,98229.12
2017-11-30T02:20:09.820Z,98224.91
2017-11-30T02:22:37.303Z,98216.11
2017-11-30T02:25:04.782Z,98215.69
2017-11-30T02:27:32.279Z,98216.92
2017-11-30T02:29:59.737Z,98210.63
2017-11-30T02:32:27.224Z,98201.38
2017-11-30T02:34:54.681Z,98201.80
2017-11-30T02:37:22.236Z,98206.85
2017-11-30T02:39:49.708Z,98212.33
2017-11-30T02:42:17.207Z,98211.08
2017-11-30T02:44:44.685Z,98203.08
2017-11-30T02:47:12.158Z,98204.75
2017-11-30T02:49:39.602Z,98208.13
2017-11-30T02:52:07.097Z,98217.81
2017-11-30T02:54:34.581Z,98215.70
2017-11-30T02:57:02.066Z,98201.83
2017-11-30T02:59:29.558Z,98195.54
2017-11-30T03:01:57.020Z,98195.09
2017-11-30T03:04:24.468Z,98194.27
2017-11-30T03:06:52.263Z,98184.16
2017-11-30T03:09:19.758Z,98185.86
2017-11-30T03:11:47.227Z,98190.48
2017-11-30T03:14:14.754Z,98188.39
2017-11-30T03:16:42.205Z,98176.61
2017-11-30T03:19:09.690Z,98170.73
2017-11-30T03:21:37.173Z,98163.16
2017-11-30T03:24:05.119Z,98159.41
2017-11-30T03:26:32.583Z,98152.27
2017-11-30T03:29:00.048Z,98156.06
2017-11-30T03:31:27.527Z,98146.81
2017-11-30T03:33:54.984Z,98149.30
2017-11-30T03:36:22.456Z,98142.20
2017-11-30T03:38:49.925Z,98143.45
2017-11-30T03:41:17.387Z,98139.67
2017-11-30T03:43:44.887Z,98135.05
2017-11-30T03:46:12.354Z,98139.69
2017-11-30T03:48:39.829Z,98135.91
2017-11-30T03:51:07.321Z,98134.22
2017-11-30T03:53:34.789Z,98139.24
2017-11-30T03:56:02.291Z,98140.52
2017-11-30T03:58:29.752Z,98136.75
2017-11-30T04:00:57.222Z,98137.19
2017-11-30T04:03:24.714Z,98130.04
2017-11-30T04:05:52.170Z,98127.09
2017-11-30T04:08:19.638Z,98126.25
2017-11-30T04:10:47.136Z,98125.41
2017-11-30T04:13:16.005Z,98115.34
2017-11-30T04:15:43.599Z,98109.83
2017-11-30T04:18:11.558Z,98116.98
2017-11-30T04:20:39.067Z,98106.47
2017-11-30T04:23:06.546Z,98101.88
2017-11-30T04:25:34.009Z,98101.50
2017-11-30T04:28:01.461Z,98106.12
2017-11-30T04:30:29.097Z,98108.63
2017-11-30T04:32:56.548Z,98103.58
2017-11-30T04:35:24.012Z,98106.53
2017-11-30T04:40:25.196Z,98101.91
2017-11-30T04:42:52.689Z,98106.47
2017-11-30T04:45:20.146Z,98095.98
2017-11-30T04:47:47.610Z,98093.05
2017-11-30T04:50:15.151Z,98085.92
2017-11-30T04:52:42.781Z,98080.88
2017-11-30T04:55:10.234Z,98079.60
2017-11-30T04:57:37.714Z,98074.59
2017-11-30T05:00:05.184Z,98074.19
2017-11-30T05:02:32.643Z,98059.06
2017-11-30T05:05:00.661Z,98062.40
2017-11-30T05:07:28.123Z,98061.62
2017-11-30T05:09:55.589Z,98053.21
2017-11-30T05:12:23.130Z,98052.78
2017-11-30T05:14:50.592Z,98048.98
2017-11-30T05:17:18.042Z,98054.84
2017-11-30T05:19:45.529Z,98043.50
2017-11-30T05:22:13.010Z,98049.84
2017-11-30T05:24:40.486Z,98045.66
2017-11-30T05:27:07.983Z,98057.00
2017-11-30T05:29:35.444Z,98054.02
2017-11-30T05:32:02.925Z,98061.59
2017-11-30T05:34:30.410Z,98058.23
2017-11-30T05:36:57.938Z,98072.09
2017-11-30T05:39:25.414Z,98067.88
2017-11-30T05:41:52.869Z,98059.92
2017-11-30T05:44:20.346Z,98053.22
2017-11-30T05:46:47.829Z,98059.11
2017-11-30T05:49:15.325Z,98054.47
2017-11-30T05:51:42.788Z,98066.23
2017-11-30T05:54:10.273Z,98068.76
2017-11-30T05:56:37.750Z,98062.86
2017-11-30T05:59:05.212Z,98056.17
2017-11-30T06:01:32.670Z,98059.11
2017-11-30T06:04:00.152Z,98054.05
2017-11-30T06:06:27.641Z,98058.23
2017-11-30T06:08:55.156Z,98049.83
2017-11-30T06:11:22.634Z,98057.84
2017-11-30T06:13:50.100Z,98063.69
2017-11-30T06:16:17.867Z,98061.17
2017-11-30T06:18:48.505Z,98054.90
2017-11-30T06:21:16.692Z,98052.72
2017-11-30T06:23:44.170Z,98063.23
2017-11-30T06:26:11.642Z,98069.53
2017-11-30T06:28:40.225Z,98058.58
2017-11-30T06:31:07.744Z,98049.77
2017-11-30T06:33:35.204Z,98036.78
2017-11-30T06:36:02.688Z,98045.59
2017-11-30T06:38:30.185Z,98046.88
2017-11-30T06:40:57.649Z,98040.96
2017-11-30T06:43:25.129Z,98045.55
2017-11-30T06:45:52.597Z,98061.05
2017-11-30T06:48:20.067Z,98050.56
2017-11-30T06:50:47.553Z,98042.16
2017-11-30T06:53:15.024Z,98044.31
2017-11-30T06:55:42.501Z,98056.48
2017-11-30T06:58:09.980Z,98048.94
2017-11-30T07:00:37.484Z,98041.30
2017-11-30T07:03:05.047Z,98040.91
2017-11-30T07:05:32.537Z,98042.61
2017-11-30T07:07:59.985Z,98040.47
2017-11-30T07:10:27.463Z,98042.14
2017-11-30T07:12:54.919Z,98047.98
2017-11-30T07:15:22.389Z,98057.64
2017-11-30T07:17:49.874Z,98048.88
2017-11-30T07:20:17.545Z,98054.34
2017-11-30T07:22:45.036Z,98053.06
2017-11-30T07:25:12.492Z,98061.06
2017-11-30T07:27:39.991Z,98050.09
2017-11-30T07:30:07.469Z,98049.67
2017-11-30T07:32:35.726Z,98050.12
2017-11-30T07:35:03.201Z,98055.20
2017-11-30T07:37:30.716Z,98055.16
2017-11-30T07:39:58.226Z,98045.89
2017-11-30T07:42:25.693Z,98043.38
2017-11-30T07:44:53.165Z,98045.05
2017-11-30T07:47:20.649Z,98037.06
2017-11-30T07:49:48.100Z,98034.50
2017-11-30T07:52:15.648Z,98035.31
2017-11-30T07:54:43.217Z,98035.19
2017-11-30T07:57:10.682Z,98032.27
2017-11-30T07:59:38.173Z,98041.13
2017-11-30T08:02:05.642Z,98035.19
2017-11-30T08:04:33.257Z,98032.22
2017-11-30T08:07:00.705Z,98033.09
2017-11-30T08:09:28.141Z,98034.72
2017-11-30T08:11:55.634Z,98029.59
2017-11-30T08:14:23.075Z,98031.76
2017-11-30T08:16:50.525Z,98040.20
2017-11-30T08:19:17.984Z,98038.78
2017-11-30T08:21:45.456Z,98038.36
2017-11-30T08:24:12.931Z,98045.45
2017-11-30T08:26:41.308Z,98044.28
2017-11-30T08:29:09.286Z,98044.28
2017-11-30T08:31:36.814Z,98047.25
2017-11-30T08:34:04.410Z,98045.92
2017-11-30T08:36:32.424Z,98047.46
2017-11-30T08:38:59.909Z,98051.64
2017-11-30T08:41:27.352Z,98046.65
2017-11-30T08:43:54.873Z,98055.86
2017-11-30T08:46:22.384Z,98049.66
2017-11-30T08:48:50.120Z,98049.31
2017-11-30T08:51:18.148Z,98047.93
2017-11-30T08:53:45.599Z,98040.36
2017-11-30T08:56:13.054Z,98037.38
2017-11-30T08:58:40.514Z,98039.38
2017-11-30T09:01:07.961Z,98038.03
2017-11-30T09:03:35.409Z,98050.05
2017-11-30T09:06:02.881Z,98050.92
2017-11-30T09:08:30.322Z,98064.89
2017-11-30T09:10:57.801Z,98052.41
2017-11-30T09:13:25.277Z,98062.52
2017-11-30T09:15:52.739Z,98063.11
2017-11-30T09:18:20.184Z,98052.50
2017-11-30T09:20:47.629Z,98064.45
2017-11-30T09:23:15.098Z,98059.26
2017-11-30T09:25:42.604Z,98062.91
2017-11-30T09:28:10.084Z,98062.82
2017-11-30T09:30:37.529Z,98057.85
2017-11-30T09:33:04.987Z,98050.70
2017-11-30T09:35:32.446Z,98049.58
2017-11-30T09:37:59.927Z,98052.55
2017-11-30T09:40:27.383Z,98041.09
2017-11-30T09:42:54.827Z,98042.00
2017-11-30T09:45:22.285Z,98045.70
2017-11-30T09:47:49.750Z,98044.31
2017-11-30T09:50:17.257Z,98045.22
2017-11-30T09:52:44.764Z,98040.56
2017-11-30T09:55:12.225Z,98036.41
2017-11-30T09:57:39.675Z,98043.47
2017-11-30T10:00:07.138Z,98038.03
2017-11-30T10:02:35.531Z,98023.64
2017-11-30T10:05:02.984Z,98027.76
2017-11-30T10:07:30.461Z,98020.56
2017-11-30T10:09:57.905Z,98021.99
2017-11-30T10:12:25.376Z,98006.73
2017-11-30T10:14:52.872Z,98005.66
2017-11-30T10:17:20.318Z,98004.16
2017-11-30T10:19:47.764Z,98005.64
2017-11-30T10:22:15.428Z,98011.84
2017-11-30T10:24:43.126Z,98009.67
2017-11-30T10:27:10.608Z,98015.44
2017-11-30T10:29:38.072Z,98022.41
2017-11-30T10:32:05.546Z,98008.48
2017-11-30T10:34:33.238Z,98009.84
2017-11-30T10:37:00.695Z,98009.42
2017-11-30T10:39:28.191Z,98009.78
2017-11-30T10:41:55.663Z,98008.41
2017-11-30T10:44:23.126Z,98008.77
2017-11-30T10:46:50.577Z,98012.91
2017-11-30T10:49:18.030Z,98003.84
2017-11-30T10:51:45.487Z,98009.58
2017-11-30T10:54:12.922Z,98006.83
2017-11-30T10:56:40.409Z,98009.74
2017-11-30T10:59:07.866Z,98003.39
2017-11-30T11:01:35.295Z,97999.21
2017-11-30T11:04:02.772Z,98002.87
2017-11-30T11:06:30.290Z,98005.39
2017-11-30T11:08:57.738Z,97996.52
2017-11-30T11:11:25.193Z,97993.53
2017-11-30T11:13:52.628Z,97998.05
2017-11-30T11:16:20.062Z,98004.37
2017-11-30T11:18:47.520Z,98008.98
2017-11-30T11:21:15.026Z,98004.41
2017-11-30T11:23:42.495Z,98017.55
2017-11-30T11:26:09.954Z,98009.61
2017-11-30T11:28:37.397Z,98021.80
2017-11-30T11:31:04.897Z,98022.25
2017-11-30T11:33:32.340Z,98028.34
2017-11-30T11:35:59.788Z,98022.41
2017-11-30T11:38:27.237Z,98029.13
2017-11-30T11:40:54.672Z,98033.27
2017-11-30T11:43:22.122Z,98031.73
2017-11-30T11:45:49.577Z,98052.41
2017-11-30T11:48:17.021Z,98046.12
2017-11-30T11:50:44.474Z,98034.42
2017-11-30T11:53:11.932Z,98042.08
2017-11-30T11:55:39.383Z,98040.03
2017-11-30T11:58:06.867Z,98036.95
2017-11-30T12:00:34.301Z,98038.23
2017-11-30T12:03:01.742Z,98043.98
2017-11-30T12:05:29.210Z,98025.69
2017-11-30T12:07:56.667Z,98028.50
2017-11-30T12:10:24.613Z,98028.95
2017-11-30T12:12:52.256Z,98034.11
2017-11-30T12:15:19.697Z,98034.63
2017-11-30T12:17:47.140Z,98040.88
2017-11-30T12:20:14.805Z,98044.34
2017-11-30T12:22:42.245Z,98048.65
2017-11-30T12:25:09.745Z,98044.08
2017-11-30T12:27:37.382Z,98050.30
2017-11-30T12:30:04.870Z,98044.05
2017-11-30T12:32:32.371Z,98050.39
2017-11-30T12:34:59.855Z,98049.30
2017-11-30T12:37:27.357Z,98050.55
2017-11-30T12:39:54.860Z,98054.00
2017-11-30T12:42:22.352Z,98064.20
2017-11-30T12:44:49.851Z,98079.23
2017-11-30T12:47:17.341Z,98062.87
2017-11-30T12:49:44.806Z,98061.02
2017-11-30T12:52:12.393Z,98075.37
2017-11-30T12:54:39.817Z,98054.00
2017-11-30T12:59:34.853Z,98074.14
2017-11-30T13:02:02.353Z,98086.78
2017-11-30T13:04:29.862Z,98086.77
2017-11-30T13:06:57.322Z,98096.42
2017-11-30T13:09:24.887Z,98099.42
2017-11-30T13:11:52.449Z,98113.42
2017-11-30T13:14:20.204Z,98084.43
2017-11-30T13:16:47.655Z,98082.20
2017-11-30T13:19:15.140Z,98084.83
2017-11-30T13:21:42.610Z,98086.98
2017-11-30T13:24:10.081Z,98089.07
2017-11-30T13:26:38.901Z,98095.30
2017-11-30T13:29:08.390Z,98101.70
2017-11-30T13:31:36.157Z,98120.59
2017-11-30T13:34:03.633Z,98110.89
2017-11-30T13:36:31.201Z,98105.87
2017-11-30T13:38:58.692Z,98139.94
2017-11-30T13:41:26.124Z,98126.95
2017-11-30T13:43:53.598Z,98138.71
2017-11-30T13:46:21.076Z,98170.77
2017-11-30T13:48:48.854Z,98159.02
2017-11-30T13:51:17.725Z,98183.46
2017-11-30T13:53:45.266Z,98162.00
2017-11-30T13:56:12.733Z,98162.84
2017-11-30T13:58:40.226Z,98170.88
2017-11-30T14:01:07.686Z,98172.59
2017-11-30T14:03:35.170Z,98183.50
2017-11-30T14:06:02.642Z,98183.52
2017-11-30T14:08:30.173Z,98191.03
2017-11-30T14:10:57.685Z,98200.29
2017-11-30T14:13:25.144Z,98220.02
2017-11-30T14:15:53.224Z,98195.21
2017-11-30T14:18:20.679Z,98199.84
2017-11-30T14:20:48.195Z,98200.24
2017-11-30T14:23:15.715Z,98209.46
2017-11-30T14:25:43.230Z,98221.62
2017-11-30T14:28:10.682Z,98224.20
2017-11-30T14:30:38.696Z,98223.73
2017-11-30T14:33:06.163Z,98234.31
2017-11-30T14:35:33.705Z,98243.14
2017-11-30T14:38:01.219Z,98236.44
2017-11-30T14:40:28.719Z,98237.33
2017-11-30T14:42:57.887Z,98241.51
2017-11-30T14:45:25.502Z,98267.64
2017-11-30T14:47:53.064Z,98241.55
2017-11-30T14:50:20.733Z,98246.16
2017-11-30T14:52:48.272Z,98263.87
2017-11-30T14:55:15.821Z,98243.70
2017-11-30T14:57:43.330Z,98253.39
2017-11-30T15:00:10.826Z,98258.44
2017-11-30T15:02:38.401Z,98264.34
2017-11-30T15:05:05.902Z,98256.78
2017-11-30T15:07:33.411Z,98261.39
2017-11-30T15:10:01.028Z,98260.12
2017-11-30T15:12:28.484Z,98262.22
2017-11-30T15:14:55.992Z,98273.60
2017-11-30T15:17:23.459Z,98268.13
2017-11-30T15:19:51.095Z,98271.06
2017-11-30T15:22:18.632Z,98268.09
2017-11-30T15:24:46.943Z,98289.13
2017-11-30T15:27:14.409Z,98273.16
2017-11-30T15:29:41.871Z,98274.00
2017-11-30T15:32:09.353Z,98292.94
2017-11-30T15:34:36.843Z,98285.34
2017-11-30T15:37:04.391Z,98290.39
2017-11-30T15:39:31.847Z,98287.00
2017-11-30T15:41:59.361Z,98294.98
2017-11-30T15:44:26.844Z,98300.44
2017-11-30T15:46:54.324Z,98303.38
2017-11-30T15:49:21.821Z,98313.46
2017-11-30T15:51:49.276Z,98318.94
2017-11-30T15:54:16.807Z,98306.70
2017-11-30T15:56:44.356Z,98321.86
2017-11-30T15:59:11.854Z,98326.50
2017-11-30T16:01:39.387Z,98321.41
2017-11-30T16:04:06.904Z,98307.55
2017-11-30T16:06:34.429Z,98341.61
2017-11-30T16:09:01.971Z,98326.05
2017-11-30T16:11:29.577Z,98330.23
2017-11-30T16:13:57.117Z,98340.77
2017-11-30T16:16:24.737Z,98348.33
2017-11-30T16:18:52.310Z,98348.72
2017-11-30T16:23:57.596Z,98352.53
2017-11-30T16:26:25.080Z,98344.55
2017-11-30T16:28:53.532Z,98347.06
2017-11-30T16:31:23.846Z,98347.92
2017-11-30T16:33:51.289Z,98351.69
2017-11-30T16:36:18.800Z,98359.28
2017-11-30T16:38:46.353Z,98357.16
2017-11-30T16:41:13.859Z,98379.92
2017-11-30T16:43:41.380Z,98366.84
2017-11-30T16:46:08.943Z,98376.50
2017-11-30T16:48:36.585Z,98375.66
2017-11-30T16:51:04.103Z,98381.14
2017-11-30T16:53:31.616Z,98382.81
2017-11-30T16:55:59.086Z,98375.22
2017-11-30T16:58:26.576Z,98381.12
2017-11-30T17:00:54.191Z,98379.02
2017-11-30T17:03:21.704Z,98379.41
2017-11-30T17:05:49.187Z,98382.80
2017-11-30T17:08:16.678Z,98389.49
2017-11-30T17:10:44.222Z,98405.90
2017-11-30T17:13:11.703Z,98381.50
2017-11-30T17:15:39.196Z,98390.77
2017-11-30T17:18:06.695Z,98388.25
2017-11-30T17:20:34.196Z,98389.06
2017-11-30T17:23:01.667Z,98390.34
2017-11-30T17:25:29.186Z,98399.14
2017-11-30T17:27:56.632Z,98387.80
2017-11-30T17:30:24.110Z,98406.72
2017-11-30T17:32:51.596Z,98403.77
2017-11-30T17:35:19.159Z,98407.12
2017-11-30T17:37:46.619Z,98411.33
2017-11-30T17:40:14.332Z,98403.36
2017-11-30T17:42:41.848Z,98396.59
2017-11-30T17:45:09.332Z,98445.04
2017-11-30T17:47:36.813Z,98407.53
2017-11-30T17:50:04.300Z,98415.13
2017-11-30T17:52:31.772Z,98409.63
2017-11-30T17:54:59.328Z,98416.80
2017-11-30T17:57:26.808Z,98418.92
2017-11-30T17:59:55.051Z,98420.22
2017-11-30T18:02:22.643Z,98431.55
2017-11-30T18:04:50.140Z,98427.34
2017-11-30T18:07:17.736Z,98445.44
2017-11-30T18:09:45.283Z,98437.02
2017-11-30T18:12:12.821Z,98453.03
2017-11-30T18:14:40.385Z,98446.28
2017-11-30T18:17:07.899Z,98459.72
2017-11-30T18:19:35.670Z,98467.30
2017-11-30T18:22:03.243Z,98462.70
2017-11-30T18:24:30.736Z,98476.13
2017-11-30T18:26:58.216Z,98472.77
2017-11-30T18:29:25.754Z,98478.69
2017-11-30T18:31:53.251Z,98493.44
2017-11-30T18:34:20.754Z,98488.80
2017-11-30T18:36:48.229Z,98505.22
2017-11-30T18:39:15.731Z,98495.94
2017-11-30T18:41:43.216Z,98501.01
2017-11-30T18:44:10.700Z,98505.22
2017-11-30T18:46:38.189Z,98507.32
2017-11-30T18:49:05.656Z,98509.00
2017-11-30T18:51:33.112Z,98509.00
2017-11-30T18:54:00.677Z,98509.42
2017-11-30T18:56:28.189Z,98518.26
2017-11-30T18:58:55.729Z,98508.16
2017-11-30T19:01:23.321Z,98508.13
2017-11-30T19:03:50.969Z,98515.71
2017-11-30T19:06:18.514Z,98526.66
2017-11-30T19:08:46.007Z,98517.41
2017-11-30T19:11:13.459Z,98530.02
2017-11-30T19:13:41.641Z,98538.04
2017-11-30T19:16:09.172Z,98535.49
2017-11-30T19:18:36.664Z,98538.48
2017-11-30T19:21:04.151Z,98537.64
2017-11-30T19:23:31.608Z,98538.88
2017-11-30T19:25:59.220Z,98533.83
2017-11-30T19:28:26.885Z,98554.03
2017-11-30T19:30:54.373Z,98547.30
2017-11-30T19:33:22.900Z,98543.48
2017-11-30T19:35:50.504Z,98548.58
2017-11-30T19:38:18.240Z,98564.19
2017-11-30T19:40:45.790Z,98559.55
2017-11-30T19:43:13.292Z,98562.05
2017-11-30T19:45:40.810Z,98574.69
2017-11-30T19:48:08.331Z,98567.98
2017-11-30T19:50:35.831Z,98566.72
2017-11-30T19:53:03.308Z,98580.61
2017-11-30T19:55:30.803Z,98573.87
2017-11-30T19:57:58.340Z,98573.87
2017-11-30T20:00:25.826Z,98596.62
2017-11-30T20:02:54.182Z,98587.34
2017-11-30T20:05:21.667Z,98587.35
2017-11-30T20:07:49.161Z,98592.84
2017-11-30T20:10:16.673Z,98594.09
2017-11-30T20:12:44.128Z,98605.45
2017-11-30T20:15:11.591Z,98600.84
2017-11-30T20:17:39.101Z,98605.90
2017-11-30T20:20:06.635Z,98604.20
2017-11-30T20:22:34.139Z,98606.30
2017-11-30T20:25:01.656Z,98608.41
2017-11-30T20:27:29.130Z,98608.83
2017-11-30T20:29:56.615Z,98618.52
2017-11-30T20:32:24.103Z,98619.77
2017-11-30T20:34:51.587Z,98615.56
2017-11-30T20:37:19.122Z,98612.18
2017-11-30T20:39:46.569Z,98619.79
2017-11-30T20:42:14.027Z,98624.00
2017-11-30T20:44:41.500Z,98616.01
2017-11-30T20:47:08.955Z,98625.26
2017-11-30T20:49:36.431Z,98627.36
2017-11-30T20:52:03.930Z,98634.52
2017-11-30T20:54:31.397Z,98636.20
2017-11-30T20:56:58.934Z,98646.73
2017-11-30T20:59:26.409Z,98653.49
2017-11-30T21:01:54.824Z,98655.17
2017-11-30T21:04:22.337Z,98659.78
2017-11-30T21:06:49.866Z,98658.52
2017-11-30T21:09:17.356Z,98660.64
2017-11-30T21:11:44.859Z,98666.12
2017-11-30T21:14:12.392Z,98672.00
2017-11-30T21:16:39.903Z,98672.00
2017-11-30T21:19:07.389Z,98672.43
2017-11-30T21:21:34.852Z,98677.48
2017-11-30T21:24:02.366Z,98683.81
2017-11-30T21:26:29.844Z,98683.80
2017-11-30T21:28:57.377Z,98689.28
2017-11-30T21:31:24.937Z,98692.22
2017-11-30T21:33:52.549Z,98686.73
2017-11-30T21:36:20.097Z,98693.89
2017-11-30T21:38:47.578Z,98693.48
2017-11-30T21:41:15.057Z,98703.16
2017-11-30T21:43:42.531Z,98698.53
2017-11-30T21:46:10.008Z,98711.98
2017-11-30T21:48:37.594Z,98721.27
2017-11-30T21:51:05.247Z,98721.69
2017-11-30T21:53:32.759Z,98723.80
2017-11-30T21:56:00.308Z,98730.52
2017-11-30T21:58:27.777Z,98730.93
2017-11-30T22:00:55.246Z,98734.31
2017-11-30T22:03:22.766Z,98731.80
2017-11-30T22:05:50.226Z,98732.62
2017-11-30T22:08:17.683Z,98731.34
2017-11-30T22:10:45.176Z,98734.30
2017-11-30T22:13:12.653Z,98737.66
2017-11-30T22:15:40.147Z,98738.50
2017-11-30T22:18:07.669Z,98737.24
2017-11-30T22:20:35.131Z,98740.20
2017-11-30T22:23:02.598Z,98741.02
2017-11-30T22:25:30.095Z,98741.00
2017-11-30T22:27:57.564Z,98746.88
2017-11-30T22:30:25.056Z,98753.61
2017-11-30T22:32:52.616Z,98752.36
2017-11-30T22:35:20.118Z,98756.61
2017-11-30T22:37:47.641Z,98755.74
2017-11-30T22:40:15.190Z,98754.03
2017-11-30T22:42:42.665Z,98770.86
2017-11-30T22:45:10.124Z,98756.57
2017-11-30T22:47:37.616Z,98758.27
2017-11-30T22:50:05.154Z,98764.16
2017-11-30T22:52:32.624Z,98772.55
2017-11-30T22:55:00.107Z,98779.30
2017-11-30T22:57:27.584Z,98771.70
2017-11-30T22:59:55.064Z,98774.20
2017-11-30T23:02:22.544Z,98774.20
2017-11-30T23:04:50.015Z,98777.19
2017-11-30T23:07:17.502Z,98774.20
2017-11-30T23:09:44.980Z,98769.14
2017-11-30T23:12:12.500Z,98777.12
2017-11-30T23:14:39.956Z,98781.34
2017-11-30T23:17:07.468Z,98783.38
2017-11-30T23:19:34.936Z,98780.45
2017-11-30T23:22:02.403Z,98786.78
2017-11-30T23:24:29.907Z,98781.77
2017-11-30T23:26:57.387Z,98791.38
2017-11-30T23:29:24.855Z,98790.98
2017-11-30T23:31:52.331Z,98792.72
2017-11-30T23:34:19.812Z,98794.80
2017-11-30T23:36:47.299Z,98801.98
2017-11-30T23:39:14.777Z,98805.70
2017-11-30T23:41:42.242Z,98814.89
2017-11-30T23:44:09.726Z,98805.20
2017-11-30T23:46:37.332Z,98813.58
2017-11-30T23:49:04.867Z,98811.47
2017-11-30T23:51:32.347Z,98811.48
2017-11-30T23:53:59.884Z,98817.40
2017-11-30T23:56:27.404Z,98819.95
2017-11-30T23:58:54.869Z,98824.17
